Time;durP1;ratioP1;P1;durP2;ratioP2;P2;SDS_P1;SDS_P2;PMS_P1;PMS_P2;Temp;Humidity;BMP_temperature;BMP_pressure;BME280_temperature;BME280_humidity;BME280_pressure;Samples;Min_cycle;Max_cycle;Signal;HPM_P1;HPM_P2
2024/04/01 00:01:42;;;;;;;1.65;0.90;;;;;;;;;;5050645;28;20391;-31
2024/04/01 00:04:09;;;;;;;3.38;1.17;;;;;;;;;;5052100;28;20027;-31
2024/04/01 00:06:36;;;;;;;2.45;0.90;;;;;;;;;;5050586;28;20395;-32
2024/04/01 00:09:03;;;;;;;2.78;0.80;;;;;;;;;;5051865;28;20549;-31
2024/04/01 00:11:30;;;;;;;1.27;0.73;;;;;;;;;;5051366;28;20483;-31
2024/04/01 00:13:57;;;;;;;3.40;1.05;;;;;;;;;;5051878;28;20422;-31
2024/04/01 00:16:25;;;;;;;3.65;1.08;;;;;;;;;;5051833;28;20475;-31
2024/04/01 00:18:52;;;;;;;2.30;1.10;;;;;;;;;;5051552;28;20037;-31
2024/04/01 00:21:18;;;;;;;1.67;0.80;;;;;;;;;;5051729;28;20029;-32
2024/04/01 00:23:49;;;;;;;1.67;0.90;;;;;;;;;;5051801;28;20025;-31
2024/04/01 00:26:16;;;;;;;3.65;1.10;;;;;;;;;;5051620;28;20040;-31
2024/04/01 00:28:43;;;;;;;2.47;0.90;;;;;;;;;;5051629;28;20079;-31
2024/04/01 00:31:10;;;;;;;1.80;0.70;;;;;;;;;;5051808;28;20348;-31
2024/04/01 00:33:37;;;;;;;3.35;1.20;;;;;;;;;;5051632;28;20017;-30
2024/04/01 00:36:04;;;;;;;2.38;1.00;;;;;;;;;;5051574;28;20616;-31
2024/04/01 00:38:31;;;;;;;1.90;0.75;;;;;;;;;;5051509;28;20092;-33
2024/04/01 00:40:58;;;;;;;2.42;1.15;;;;;;;;;;5051384;28;20457;-33
2024/04/01 00:43:25;;;;;;;1.77;0.88;;;;;;;;;;5051273;28;20502;-32
2024/04/01 00:45:53;;;;;;;3.08;1.10;;;;;;;;;;5051510;28;20021;-33
2024/04/01 00:48:20;;;;;;;2.33;1.08;;;;;;;;;;5051444;28;20029;-31
2024/04/01 00:50:51;;;;;;;2.42;0.93;;;;;;;;;;5051369;28;20021;-30
2024/04/01 00:53:20;;;;;;;2.70;1.10;;;;;;;;;;5051379;28;20032;-31
2024/04/01 00:55:47;;;;;;;2.00;1.02;;;;;;;;;;5051335;28;20487;-31
2024/04/01 00:58:15;;;;;;;2.13;0.98;;;;;;;;;;5051366;28;20028;-31
2024/04/01 01:00:42;;;;;;;2.40;1.05;;;;;;;;;;5051193;28;20056;-30
2024/04/01 01:03:10;;;;;;;2.25;1.13;;;;;;;;;;5051274;28;20029;-30
2024/04/01 01:05:37;;;;;;;2.63;1.10;;;;;;;;;;5051276;28;20021;-31
2024/04/01 01:08:05;;;;;;;3.65;1.20;;;;;;;;;;5051298;28;20025;-31
2024/04/01 01:10:33;;;;;;;2.00;0.80;;;;;;;;;;5051168;28;20036;-31
2024/04/01 01:13:00;;;;;;;1.55;0.77;;;;;;;;;;5051138;28;20498;-30
2024/04/01 01:15:28;;;;;;;3.33;1.10;;;;;;;;;;5051204;28;20029;-31
2024/04/01 01:17:55;;;;;;;2.25;0.90;;;;;;;;;;5051215;28;20021;-31
2024/04/01 01:20:22;;;;;;;2.70;0.98;;;;;;;;;;5050994;28;20025;-33
2024/04/01 01:22:49;;;;;;;3.20;1.10;;;;;;;;;;5052139;28;20025;-30
2024/04/01 01:25:16;;;;;;;2.25;0.90;;;;;;;;;;5054961;28;20391;-31
2024/04/01 01:27:44;;;;;;;2.20;0.88;;;;;;;;;;5054935;28;20036;-30
2024/04/01 01:30:17;;;;;;;3.28;0.95;;;;;;;;;;5054867;28;20529;-30
2024/04/01 01:32:49;;;;;;;2.25;0.85;;;;;;;;;;5054795;28;20048;-31
2024/04/01 01:35:20;;;;;;;3.28;1.00;;;;;;;;;;5054854;28;20079;-31
2024/04/01 01:37:48;;;;;;;2.97;0.98;;;;;;;;;;5054929;28;20438;-31
2024/04/01 01:40:14;;;;;;;2.42;1.00;;;;;;;;;;5054625;28;20029;-32
2024/04/01 01:42:41;;;;;;;2.25;0.80;;;;;;;;;;5054565;28;20445;-31
2024/04/01 01:45:09;;;;;;;2.05;0.85;;;;;;;;;;5054682;28;20040;-30
2024/04/01 01:47:36;;;;;;;3.50;1.15;;;;;;;;;;5054666;28;20029;-30
2024/04/01 01:50:04;;;;;;;1.65;0.93;;;;;;;;;;5054479;28;20075;-31
2024/04/01 01:52:31;;;;;;;2.65;0.90;;;;;;;;;;5054804;28;20025;-33
2024/04/01 01:54:58;;;;;;;2.40;1.10;;;;;;;;;;5054417;28;20044;-31
2024/04/01 01:57:26;;;;;;;1.30;0.80;;;;;;;;;;5054462;28;20025;-32
2024/04/01 01:59:53;;;;;;;2.22;1.00;;;;;;;;;;5054291;28;20028;-30
2024/04/01 02:02:20;;;;;;;1.55;0.90;;;;;;;;;;5054316;28;20151;-31
2024/04/01 02:04:48;;;;;;;2.22;0.77;;;;;;;;;;5054318;28;20467;-29
2024/04/01 02:07:15;;;;;;;3.72;1.00;;;;;;;;;;5054213;28;20017;-30
2024/04/01 02:09:43;;;;;;;1.75;0.82;;;;;;;;;;5054186;28;20031;-31
2024/04/01 02:12:10;;;;;;;2.53;1.17;;;;;;;;;;5054117;28;20029;-30
2024/04/01 02:14:37;;;;;;;1.42;0.90;;;;;;;;;;5054094;28;20093;-30
2024/04/01 02:17:05;;;;;;;1.30;0.88;;;;;;;;;;5054030;28;20025;-31
2024/04/01 02:19:32;;;;;;;4.10;0.88;;;;;;;;;;5053971;28;20076;-31
2024/04/01 02:21:59;;;;;;;2.05;0.80;;;;;;;;;;5054005;28;20025;-30
2024/04/01 02:24:26;;;;;;;4.82;1.20;;;;;;;;;;5053894;28;20013;-31
2024/04/01 02:26:57;;;;;;;2.28;1.05;;;;;;;;;;5053881;28;20025;-30
2024/04/01 02:29:24;;;;;;;1.95;0.80;;;;;;;;;;5053846;28;20067;-32
2024/04/01 02:31:51;;;;;;;2.15;0.98;;;;;;;;;;5053655;28;20074;-30
2024/04/01 02:34:17;;;;;;;4.70;1.00;;;;;;;;;;5053351;28;20029;-30
2024/04/01 02:36:44;;;;;;;1.90;0.77;;;;;;;;;;5053687;28;20025;-29
2024/04/01 02:39:16;;;;;;;3.92;1.10;;;;;;;;;;5052127;28;20395;-31
2024/04/01 02:41:47;;;;;;;1.55;0.70;;;;;;;;;;5053420;28;20426;-31
2024/04/01 02:44:14;;;;;;;2.60;1.00;;;;;;;;;;5053363;28;20102;-31
2024/04/01 02:46:41;;;;;;;3.92;0.88;;;;;;;;;;5053472;28;20112;-32
2024/04/01 02:49:11;;;;;;;2.50;1.05;;;;;;;;;;5053465;28;20035;-30
2024/04/01 02:51:39;;;;;;;1.85;0.90;;;;;;;;;;5051967;28;20032;-32
2024/04/01 02:54:06;;;;;;;2.17;0.93;;;;;;;;;;5053401;28;20031;-30
2024/04/01 02:56:34;;;;;;;2.17;0.90;;;;;;;;;;5053329;28;20060;-32
2024/04/01 02:59:10;;;;;;;2.33;0.85;;;;;;;;;;5053204;28;20100;-30
2024/04/01 03:01:41;;;;;;;2.13;0.90;;;;;;;;;;5053138;28;20044;-34
2024/04/01 03:04:08;;;;;;;1.83;0.95;;;;;;;;;;5053058;28;20021;-31
2024/04/01 03:06:36;;;;;;;1.70;1.00;;;;;;;;;;5053462;28;20199;-31
2024/04/01 03:09:04;;;;;;;2.03;0.93;;;;;;;;;;5053043;28;20112;-34
2024/04/01 03:11:32;;;;;;;2.17;0.80;;;;;;;;;;5052849;28;20021;-31
2024/04/01 03:13:59;;;;;;;1.77;0.82;;;;;;;;;;5053063;28;20105;-31
2024/04/01 03:16:25;;;;;;;2.30;1.23;;;;;;;;;;5052973;28;20021;-31
2024/04/01 03:18:52;;;;;;;4.07;1.10;;;;;;;;;;5052748;28;20394;-30
2024/04/01 03:21:19;;;;;;;1.65;0.93;;;;;;;;;;5052668;28;20395;-31
2024/04/01 03:23:46;;;;;;;2.03;0.80;;;;;;;;;;5052836;28;20482;-31
2024/04/01 03:26:13;;;;;;;1.92;0.95;;;;;;;;;;5052736;28;20027;-31
2024/04/01 03:28:40;;;;;;;2.72;0.93;;;;;;;;;;5052764;28;20024;-31
2024/04/01 03:31:08;;;;;;;1.90;0.82;;;;;;;;;;5052583;28;20483;-32
2024/04/01 03:33:35;;;;;;;1.45;0.80;;;;;;;;;;5052614;28;20106;-31
2024/04/01 03:36:02;;;;;;;1.70;0.82;;;;;;;;;;5052536;28;20097;-30
2024/04/01 03:38:29;;;;;;;1.77;0.80;;;;;;;;;;5052328;28;20032;-30
2024/04/01 03:40:56;;;;;;;1.35;0.90;;;;;;;;;;5052442;28;20032;-30
2024/04/01 03:43:23;;;;;;;2.55;0.95;;;;;;;;;;5052114;28;20080;-31
2024/04/01 03:46:00;;;;;;;2.40;1.08;;;;;;;;;;5051614;28;20112;-32
2024/04/01 03:48:27;;;;;;;2.95;1.33;;;;;;;;;;5052356;28;20040;-31
2024/04/01 03:50:54;;;;;;;3.85;1.38;;;;;;;;;;5052250;28;20021;-31
2024/04/01 03:53:21;;;;;;;2.72;1.25;;;;;;;;;;5052264;28;20025;-30
2024/04/01 03:55:48;;;;;;;3.58;1.48;;;;;;;;;;5052053;28;20039;-31
2024/04/01 03:58:15;;;;;;;3.65;1.45;;;;;;;;;;5052153;28;20074;-30
2024/04/01 04:00:43;;;;;;;3.92;1.20;;;;;;;;;;5052144;28;20475;-32
2024/04/01 04:03:10;;;;;;;1.83;0.90;;;;;;;;;;5051960;28;20511;-33
2024/04/01 04:05:38;;;;;;;3.50;1.60;;;;;;;;;;5052035;28;20498;-30
2024/04/01 04:08:06;;;;;;;2.38;1.20;;;;;;;;;;5051974;28;20040;-31
2024/04/01 04:10:34;;;;;;;2.28;1.20;;;;;;;;;;5051763;28;20047;-31
2024/04/01 04:13:01;;;;;;;4.43;1.33;;;;;;;;;;5051909;28;20040;-33
2024/04/01 04:15:27;;;;;;;3.50;1.40;;;;;;;;;;5051926;28;20079;-33
2024/04/01 04:17:54;;;;;;;3.15;1.40;;;;;;;;;;5051845;28;20104;-31
2024/04/01 04:20:21;;;;;;;3.72;1.00;;;;;;;;;;5051638;28;20029;-30
2024/04/01 04:22:48;;;;;;;3.45;0.98;;;;;;;;;;5051751;28;20103;-31
2024/04/01 04:25:15;;;;;;;3.38;1.27;;;;;;;;;;5051649;28;20028;-32
2024/04/01 04:27:42;;;;;;;4.80;1.40;;;;;;;;;;5051748;28;20040;-31
2024/04/01 04:30:12;;;;;;;2.63;1.30;;;;;;;;;;5051641;28;20024;-31
2024/04/01 04:32:40;;;;;;;5.07;1.60;;;;;;;;;;5051688;28;20021;-31
2024/04/01 04:35:09;;;;;;;2.17;1.17;;;;;;;;;;5051658;28;20096;-32
2024/04/01 04:37:38;;;;;;;2.78;1.25;;;;;;;;;;5051524;28;20056;-31
2024/04/01 04:40:08;;;;;;;4.13;1.02;;;;;;;;;;5051338;28;20491;-31
2024/04/01 04:42:35;;;;;;;2.78;1.15;;;;;;;;;;5051235;28;20049;-30
2024/04/01 04:45:02;;;;;;;2.78;1.15;;;;;;;;;;5051396;28;20395;-31
2024/04/01 04:47:30;;;;;;;4.07;1.05;;;;;;;;;;5051510;28;20052;-31
2024/04/01 04:49:57;;;;;;;2.80;1.27;;;;;;;;;;5051284;28;20074;-31
2024/04/01 04:52:24;;;;;;;3.17;1.10;;;;;;;;;;5051436;28;20028;-32
2024/04/01 04:54:51;;;;;;;4.45;1.35;;;;;;;;;;5051385;28;20098;-31
2024/04/01 04:57:18;;;;;;;3.03;1.25;;;;;;;;;;5053093;28;20028;-31
2024/04/01 04:59:46;;;;;;;3.58;1.40;;;;;;;;;;5055666;28;20098;-32
2024/04/01 05:02:13;;;;;;;2.13;1.13;;;;;;;;;;5055474;28;20029;-31
2024/04/01 05:04:40;;;;;;;2.83;1.20;;;;;;;;;;5055446;28;20107;-33
2024/04/01 05:07:08;;;;;;;3.75;1.33;;;;;;;;;;5055365;28;20025;-31
2024/04/01 05:09:36;;;;;;;3.20;1.50;;;;;;;;;;5055471;28;20037;-30
2024/04/01 05:12:03;;;;;;;3.55;1.67;;;;;;;;;;5055331;28;20491;-30
2024/04/01 05:14:30;;;;;;;3.65;1.90;;;;;;;;;;5055248;28;20033;-32
2024/04/01 05:16:57;;;;;;;6.20;2.40;;;;;;;;;;5055195;28;20105;-31
2024/04/01 05:19:24;;;;;;;6.05;2.10;;;;;;;;;;5055146;28;20025;-30
2024/04/01 05:21:51;;;;;;;3.90;1.90;;;;;;;;;;5055024;28;20021;-32
2024/04/01 05:24:19;;;;;;;5.25;1.80;;;;;;;;;;5055025;28;20100;-30
2024/04/01 05:26:46;;;;;;;3.30;1.65;;;;;;;;;;5054922;28;20029;-33
2024/04/01 05:29:13;;;;;;;2.85;1.50;;;;;;;;;;5054968;28;20032;-34
2024/04/01 05:31:40;;;;;;;3.15;1.48;;;;;;;;;;5054914;28;20021;-31
2024/04/01 05:34:08;;;;;;;3.88;1.70;;;;;;;;;;5054956;28;20028;-31
2024/04/01 05:36:35;;;;;;;4.50;1.48;;;;;;;;;;5054852;28;20021;-31
2024/04/01 05:39:05;;;;;;;2.10;1.25;;;;;;;;;;5054798;28;20036;-31
2024/04/01 05:41:33;;;;;;;3.47;1.50;;;;;;;;;;5054603;28;20072;-31
2024/04/01 05:44:00;;;;;;;2.45;1.38;;;;;;;;;;5054431;28;20128;-32
2024/04/01 05:46:27;;;;;;;3.15;1.50;;;;;;;;;;5054654;28;20021;-31
2024/04/01 05:48:54;;;;;;;2.92;1.48;;;;;;;;;;5054535;28;20387;-31
2024/04/01 05:51:21;;;;;;;2.95;1.55;;;;;;;;;;5054496;28;20024;-29
2024/04/01 05:53:48;;;;;;;2.50;1.40;;;;;;;;;;5054554;28;20133;-30
2024/04/01 05:56:14;;;;;;;4.47;1.08;;;;;;;;;;5054479;28;20017;-30
2024/04/01 05:58:42;;;;;;;3.15;1.30;;;;;;;;;;5054667;28;20029;-33
2024/04/01 06:01:09;;;;;;;2.70;1.20;;;;;;;;;;5052953;28;20491;-31
2024/04/01 06:03:36;;;;;;;2.60;1.50;;;;;;;;;;5054359;28;20460;-31
2024/04/01 06:06:03;;;;;;;2.28;1.33;;;;;;;;;;5054381;28;20491;-32
2024/04/01 06:08:30;;;;;;;6.70;1.33;;;;;;;;;;5053452;28;20075;-32
2024/04/01 06:11:01;;;;;;;4.82;1.27;;;;;;;;;;5053942;28;20033;-34
2024/04/01 06:13:28;;;;;;;4.82;1.35;;;;;;;;;;5054144;28;20079;-31
2024/04/01 06:15:55;;;;;;;5.22;1.38;;;;;;;;;;5052552;28;20388;-31
2024/04/01 06:18:23;;;;;;;4.80;1.50;;;;;;;;;;5054024;28;20017;-33
2024/04/01 06:20:50;;;;;;;3.63;1.73;;;;;;;;;;5053728;28;20033;-32
2024/04/01 06:23:17;;;;;;;3.30;1.50;;;;;;;;;;5054006;28;20017;-31
2024/04/01 06:25:46;;;;;;;2.50;1.48;;;;;;;;;;5053875;28;20430;-30
2024/04/01 06:28:13;;;;;;;3.15;1.75;;;;;;;;;;5053747;28;20060;-34
2024/04/01 06:33:06;;;;;;;4.40;1.50;;;;;;;;;;5204177;22;20131;-28
2024/04/01 06:35:33;;;;;;;3.00;1.25;;;;;;;;;;5053791;28;20021;-29
2024/04/01 06:38:00;;;;;;;3.25;1.38;;;;;;;;;;5053667;28;20489;-28
2024/04/01 06:40:27;;;;;;;3.63;1.20;;;;;;;;;;5053587;28;20051;-28
2024/04/01 06:42:54;;;;;;;3.65;1.52;;;;;;;;;;5053542;28;20045;-28
2024/04/01 06:45:21;;;;;;;3.95;1.58;;;;;;;;;;5053536;28;20486;-28
2024/04/01 06:47:48;;;;;;;3.83;1.33;;;;;;;;;;5053515;28;20387;-28
2024/04/01 06:50:15;;;;;;;4.47;1.55;;;;;;;;;;5053437;28;20498;-28
2024/04/01 06:52:42;;;;;;;3.10;1.48;;;;;;;;;;5053559;28;20032;-29
2024/04/01 06:55:09;;;;;;;3.63;1.42;;;;;;;;;;5053334;28;20505;-28
2024/04/01 06:57:36;;;;;;;3.65;1.17;;;;;;;;;;5053242;28;20047;-28
2024/04/01 07:00:05;;;;;;;2.92;1.40;;;;;;;;;;5053184;28;20376;-28
2024/04/01 07:02:32;;;;;;;2.53;1.30;;;;;;;;;;5053089;28;20029;-28
2024/04/01 07:04:59;;;;;;;2.72;1.33;;;;;;;;;;5053237;28;20028;-28
2024/04/01 07:07:25;;;;;;;3.55;1.52;;;;;;;;;;5053136;28;20108;-28
2024/04/01 07:09:52;;;;;;;1.90;1.00;;;;;;;;;;5053051;28;20033;-28
2024/04/01 07:12:21;;;;;;;2.10;1.30;;;;;;;;;;5052940;28;20482;-28
2024/04/01 07:14:48;;;;;;;2.42;1.27;;;;;;;;;;5052981;28;20544;-28
2024/04/01 07:17:15;;;;;;;3.35;1.38;;;;;;;;;;5052915;28;20017;-28
2024/04/01 07:19:42;;;;;;;3.75;1.33;;;;;;;;;;5052624;28;20036;-28
2024/04/01 07:22:08;;;;;;;3.05;1.25;;;;;;;;;;5052206;28;20045;-28
2024/04/01 07:24:35;;;;;;;2.47;1.30;;;;;;;;;;5052818;28;20021;-28
2024/04/01 07:27:02;;;;;;;2.65;1.23;;;;;;;;;;5052728;28;20025;-28
2024/04/01 07:29:30;;;;;;;3.13;1.20;;;;;;;;;;5052672;28;20502;-28
2024/04/01 07:31:57;;;;;;;3.78;1.35;;;;;;;;;;5052308;28;20072;-28
2024/04/01 07:34:24;;;;;;;3.05;1.42;;;;;;;;;;5052554;28;20056;-28
2024/04/01 07:36:51;;;;;;;1.77;1.02;;;;;;;;;;5052526;28;20021;-28
2024/04/01 07:39:18;;;;;;;2.80;1.20;;;;;;;;;;5052440;28;20033;-28
2024/04/01 07:41:45;;;;;;;2.22;1.20;;;;;;;;;;5052601;28;20025;-28
2024/04/01 07:44:12;;;;;;;3.47;1.30;;;;;;;;;;5052335;28;20491;-28
2024/04/01 07:46:39;;;;;;;5.13;1.10;;;;;;;;;;5052343;28;20052;-28
2024/04/01 07:49:06;;;;;;;3.00;1.20;;;;;;;;;;5052325;28;20447;-28
2024/04/01 07:51:33;;;;;;;2.00;1.15;;;;;;;;;;5052519;28;20027;-28
2024/04/01 07:54:00;;;;;;;4.25;1.25;;;;;;;;;;5052253;28;20056;-29
2024/04/01 07:56:28;;;;;;;4.43;1.30;;;;;;;;;;5052115;28;20467;-28
2024/04/01 07:58:55;;;;;;;2.55;1.33;;;;;;;;;;5052031;28;20116;-29
2024/04/01 08:01:22;;;;;;;2.45;1.48;;;;;;;;;;5052034;28;20017;-28
2024/04/01 08:03:49;;;;;;;2.17;1.10;;;;;;;;;;5052087;28;20021;-28
2024/04/01 08:06:16;;;;;;;2.08;1.30;;;;;;;;;;5052047;28;20041;-28
2024/04/01 08:08:43;;;;;;;3.08;1.08;;;;;;;;;;5051899;28;20781;-28
2024/04/01 08:11:10;;;;;;;2.20;1.10;;;;;;;;;;5051879;28;20025;-28
2024/04/01 08:13:38;;;;;;;2.17;1.20;;;;;;;;;;5051941;28;20017;-28
2024/04/01 08:16:05;;;;;;;1.65;1.10;;;;;;;;;;5051792;28;20029;-28
2024/04/01 08:18:32;;;;;;;3.08;1.50;;;;;;;;;;5051753;28;20364;-28
2024/04/01 08:21:00;;;;;;;2.20;1.00;;;;;;;;;;5051716;28;20136;-28
2024/04/01 08:23:28;;;;;;;3.20;1.08;;;;;;;;;;5051822;28;20024;-28
2024/04/01 08:25:55;;;;;;;4.10;1.20;;;;;;;;;;5051730;28;20029;-28
2024/04/01 08:28:22;;;;;;;3.58;1.20;;;;;;;;;;5052040;28;20420;-28
2024/04/01 08:30:49;;;;;;;3.03;1.25;;;;;;;;;;5051602;28;20040;-28
2024/04/01 08:33:17;;;;;;;1.67;1.00;;;;;;;;;;5051160;28;20114;-28
2024/04/01 08:35:44;;;;;;;2.30;1.08;;;;;;;;;;5051640;28;20025;-28
2024/04/01 08:38:11;;;;;;;1.73;1.00;;;;;;;;;;5051638;28;20021;-28
2024/04/01 08:40:47;;;;;;;2.45;1.08;;;;;;;;;;5051552;28;20475;-28
2024/04/01 08:43:15;;;;;;;2.25;1.00;;;;;;;;;;5051505;28;20027;-28
2024/04/01 08:45:45;;;;;;;2.00;1.02;;;;;;;;;;5051534;28;20029;-28
2024/04/01 08:48:13;;;;;;;1.98;1.08;;;;;;;;;;5051497;28;20024;-28
2024/04/01 08:50:47;;;;;;;2.08;1.10;;;;;;;;;;5051380;28;20403;-28
2024/04/01 08:53:18;;;;;;;2.58;1.08;;;;;;;;;;5051351;28;20040;-28
2024/04/01 08:55:45;;;;;;;3.45;1.08;;;;;;;;;;5051458;28;20029;-28
2024/04/01 08:58:11;;;;;;;2.20;1.10;;;;;;;;;;5051375;28;20035;-28
2024/04/01 09:00:39;;;;;;;2.90;1.25;;;;;;;;;;5051234;28;20028;-28
2024/04/01 09:03:06;;;;;;;1.77;0.90;;;;;;;;;;5051220;28;20025;-28
2024/04/01 09:05:33;;;;;;;4.30;1.00;;;;;;;;;;5051271;28;20443;-28
2024/04/01 09:08:00;;;;;;;2.45;0.90;;;;;;;;;;5049905;28;20426;-29
2024/04/01 09:10:27;;;;;;;3.00;1.23;;;;;;;;;;5051221;28;20094;-28
2024/04/01 09:12:55;;;;;;;4.40;0.98;;;;;;;;;;5051146;28;20022;-28
2024/04/01 09:15:25;;;;;;;2.42;1.10;;;;;;;;;;5051143;28;20017;-28
2024/04/01 09:17:52;;;;;;;1.58;0.95;;;;;;;;;;5051158;28;20037;-28
2024/04/01 09:20:19;;;;;;;1.30;1.00;;;;;;;;;;5051079;28;20083;-28
2024/04/01 09:22:46;;;;;;;2.60;1.40;;;;;;;;;;5051072;28;20082;-28
2024/04/01 09:25:13;;;;;;;3.35;1.05;;;;;;;;;;5050068;28;20028;-29
2024/04/01 09:27:40;;;;;;;1.45;0.85;;;;;;;;;;5050969;28;20025;-29
2024/04/01 09:30:09;;;;;;;1.70;0.93;;;;;;;;;;5051058;28;20040;-29
2024/04/01 09:32:36;;;;;;;1.63;0.90;;;;;;;;;;5050793;28;20108;-28
2024/04/01 09:35:02;;;;;;;1.98;0.80;;;;;;;;;;5051092;28;20082;-29
2024/04/01 09:37:29;;;;;;;2.33;1.05;;;;;;;;;;5051302;28;20433;-28
2024/04/01 09:39:57;;;;;;;2.33;1.02;;;;;;;;;;5050867;28;20033;-29
2024/04/01 09:42:24;;;;;;;2.13;0.95;;;;;;;;;;5050795;28;20437;-28
2024/04/01 09:44:52;;;;;;;2.65;1.00;;;;;;;;;;5053457;28;20376;-28
2024/04/01 09:47:19;;;;;;;1.77;0.80;;;;;;;;;;5054657;28;20536;-28
2024/04/01 09:49:47;;;;;;;2.45;0.90;;;;;;;;;;5054601;28;20033;-29
2024/04/01 09:52:14;;;;;;;4.35;1.40;;;;;;;;;;5054420;28;20376;-29
2024/04/01 09:54:41;;;;;;;1.73;1.15;;;;;;;;;;5054478;28;20505;-29
2024/04/01 09:57:11;;;;;;;1.52;0.90;;;;;;;;;;5054510;28;20131;-28
2024/04/01 09:59:38;;;;;;;1.67;0.88;;;;;;;;;;5054615;28;20052;-28
2024/04/01 10:02:05;;;;;;;2.63;1.10;;;;;;;;;;5054218;28;20390;-28
2024/04/01 10:04:32;;;;;;;3.20;0.88;;;;;;;;;;5054308;28;20159;-28
2024/04/01 10:07:08;;;;;;;1.65;1.00;;;;;;;;;;5054294;28;20491;-28
2024/04/01 10:09:53;;;;;;;2.40;1.00;;;;;;;;;;5054241;28;20039;-28
2024/04/01 10:12:43;;;;;;;3.22;1.15;;;;;;;;;;5054347;28;20021;-28
2024/04/01 10:15:23;;;;;;;2.63;1.00;;;;;;;;;;5044241;28;20036;-29
2024/04/01 10:17:53;;;;;;;1.33;0.85;;;;;;;;;;5054136;28;20545;-29
2024/04/01 10:20:53;;;;;;;2.92;0.82;;;;;;;;;;5053934;28;20298;-28
2024/04/01 10:23:38;;;;;;;2.00;1.15;;;;;;;;;;5053985;28;20108;-28
2024/04/01 10:26:20;;;;;;;1.55;0.80;;;;;;;;;;5053868;28;20103;-28
2024/04/01 10:29:05;;;;;;;2.67;0.80;;;;;;;;;;5053946;28;20021;-29
2024/04/01 10:31:53;;;;;;;1.48;0.73;;;;;;;;;;5053587;28;20045;-29
2024/04/01 10:34:38;;;;;;;2.15;0.98;;;;;;;;;;5053756;28;20051;-29
2024/04/01 10:37:08;;;;;;;2.17;0.93;;;;;;;;;;5052391;28;20055;-28
2024/04/01 10:39:39;;;;;;;1.38;0.82;;;;;;;;;;5053596;28;20704;-29
2024/04/01 10:42:23;;;;;;;0.98;0.50;;;;;;;;;;5053556;28;20028;-28
2024/04/01 10:44:50;;;;;;;4.30;0.98;;;;;;;;;;5053587;28;20045;-29
2024/04/01 10:47:17;;;;;;;1.90;0.70;;;;;;;;;;5053593;28;20063;-29
2024/04/01 10:49:56;;;;;;;3.20;0.80;;;;;;;;;;5053494;28;20112;-29
2024/04/01 10:52:41;;;;;;;1.40;0.77;;;;;;;;;;5053354;28;20032;-28
2024/04/01 10:55:21;;;;;;;0.70;0.60;;;;;;;;;;5053150;28;20025;-28
2024/04/01 10:58:07;;;;;;;2.03;0.70;;;;;;;;;;5053357;28;20033;-29
2024/04/01 11:00:59;;;;;;;1.50;0.63;;;;;;;;;;5053163;28;20033;-28
2024/04/01 11:03:44;;;;;;;2.15;0.80;;;;;;;;;;5053319;28;20518;-28
2024/04/01 11:06:11;;;;;;;0.90;0.60;;;;;;;;;;5053180;28;20396;-28
2024/04/01 11:08:38;;;;;;;1.70;0.70;;;;;;;;;;5053207;28;20021;-28
2024/04/01 11:11:25;;;;;;;1.27;0.77;;;;;;;;;;5053008;28;20036;-28
2024/04/01 11:13:52;;;;;;;1.58;0.90;;;;;;;;;;5052978;28;20021;-28
2024/04/01 11:16:22;;;;;;;2.47;0.70;;;;;;;;;;5052985;28;20104;-28
2024/04/01 11:18:59;;;;;;;1.55;0.80;;;;;;;;;;5052900;28;20032;-28
2024/04/01 11:21:35;;;;;;;2.75;0.95;;;;;;;;;;5052730;28;20100;-28
2024/04/01 11:24:10;;;;;;;3.58;0.82;;;;;;;;;;5052804;28;20392;-28
2024/04/01 11:26:40;;;;;;;1.45;0.75;;;;;;;;;;5052798;28;20104;-28
2024/04/01 11:29:20;;;;;;;1.52;0.80;;;;;;;;;;5052708;28;20029;-29
2024/04/01 11:31:59;;;;;;;1.30;0.80;;;;;;;;;;5052474;28;20106;-29
2024/04/01 11:34:40;;;;;;;2.20;0.90;;;;;;;;;;5052622;28;20029;-29
2024/04/01 11:37:07;;;;;;;3.45;0.80;;;;;;;;;;5052565;28;20013;-29
2024/04/01 11:39:36;;;;;;;2.75;0.80;;;;;;;;;;5052438;28;20036;-28
2024/04/01 11:42:03;;;;;;;1.77;0.70;;;;;;;;;;5052389;28;20028;-28
2024/04/01 11:44:31;;;;;;;1.95;0.88;;;;;;;;;;5052434;28;20135;-28
2024/04/01 11:46:59;;;;;;;1.52;0.80;;;;;;;;;;5052361;28;20035;-28
2024/04/01 11:49:26;;;;;;;2.95;0.88;;;;;;;;;;5052338;28;20543;-28
2024/04/01 11:51:53;;;;;;;1.33;0.70;;;;;;;;;;5052171;28;20100;-28
2024/04/01 11:54:30;;;;;;;1.65;0.70;;;;;;;;;;5052228;28;20025;-29
2024/04/01 11:56:56;;;;;;;2.30;0.73;;;;;;;;;;5052162;28;20487;-28
2024/04/01 11:59:31;;;;;;;1.75;1.10;;;;;;;;;;5052069;28;20057;-28
2024/04/01 12:01:58;;;;;;;1.33;0.75;;;;;;;;;;5051942;28;20032;-28
2024/04/01 12:04:26;;;;;;;2.08;0.90;;;;;;;;;;5052081;28;20037;-29
2024/04/01 12:06:53;;;;;;;0.82;0.60;;;;;;;;;;5051396;28;20025;-28
2024/04/01 12:09:20;;;;;;;2.45;0.90;;;;;;;;;;5052062;28;20107;-28
2024/04/01 12:11:48;;;;;;;2.33;0.80;;;;;;;;;;5051921;28;20027;-29
2024/04/01 12:14:15;;;;;;;1.73;0.70;;;;;;;;;;5051889;28;20039;-28
2024/04/01 12:16:44;;;;;;;2.03;0.90;;;;;;;;;;5051812;28;20028;-28
2024/04/01 12:19:13;;;;;;;1.15;0.70;;;;;;;;;;5051766;28;20131;-28
2024/04/01 12:21:45;;;;;;;1.67;0.70;;;;;;;;;;5051669;28;20413;-29
2024/04/01 12:24:16;;;;;;;1.42;0.55;;;;;;;;;;5051717;28;20021;-29
2024/04/01 12:26:43;;;;;;;2.22;0.77;;;;;;;;;;5051682;28;20025;-29
2024/04/01 12:29:14;;;;;;;2.65;0.60;;;;;;;;;;5051673;28;20048;-29
2024/04/01 12:31:47;;;;;;;1.95;0.80;;;;;;;;;;5051334;28;20060;-28
2024/04/01 12:34:14;;;;;;;1.42;0.77;;;;;;;;;;5051820;28;20065;-29
2024/04/01 12:36:42;;;;;;;1.45;0.70;;;;;;;;;;5051571;28;20082;-29
2024/04/01 12:39:11;;;;;;;2.85;0.90;;;;;;;;;;5051474;28;20044;-29
2024/04/01 12:41:38;;;;;;;1.70;0.85;;;;;;;;;;5051409;28;20025;-29
2024/04/01 12:44:10;;;;;;;1.35;0.70;;;;;;;;;;5051561;28;20039;-29
2024/04/01 12:46:41;;;;;;;1.20;0.52;;;;;;;;;;5051517;28;20029;-29
2024/04/01 12:49:14;;;;;;;1.00;0.60;;;;;;;;;;5051477;28;20096;-28
2024/04/01 12:51:42;;;;;;;1.90;0.80;;;;;;;;;;5051320;28;20024;-29
2024/04/01 12:54:09;;;;;;;2.92;1.00;;;;;;;;;;5051467;28;20025;-29
2024/04/01 12:56:39;;;;;;;2.13;0.80;;;;;;;;;;5051654;28;20654;-29
2024/04/01 12:59:12;;;;;;;3.38;0.88;;;;;;;;;;5051256;28;20483;-29
2024/04/01 13:01:45;;;;;;;2.72;0.88;;;;;;;;;;5051256;28;20051;-28
2024/04/01 13:04:41;;;;;;;2.00;0.88;;;;;;;;;;5051285;28;20459;-29
2024/04/01 13:07:14;;;;;;;1.48;0.60;;;;;;;;;;5034419;28;20029;-29
2024/04/01 13:09:49;;;;;;;1.98;0.60;;;;;;;;;;5051329;28;20142;-28
2024/04/01 13:12:22;;;;;;;2.10;0.70;;;;;;;;;;5051184;28;20458;-29
2024/04/01 13:14:53;;;;;;;1.63;0.73;;;;;;;;;;5051261;28;20379;-28
2024/04/01 13:17:26;;;;;;;1.25;0.77;;;;;;;;;;5051338;28;20498;-29
2024/04/01 13:20:06;;;;;;;2.75;0.70;;;;;;;;;;5055136;28;20037;-29
2024/04/01 13:22:47;;;;;;;6.15;0.70;;;;;;;;;;5055039;28;20040;-29
2024/04/01 13:25:20;;;;;;;1.38;0.75;;;;;;;;;;5055085;28;20021;-29
2024/04/01 13:27:59;;;;;;;2.67;1.00;;;;;;;;;;5055067;28;20036;-28
2024/04/01 13:30:26;;;;;;;4.32;0.82;;;;;;;;;;5054936;28;20036;-29
2024/04/01 13:33:00;;;;;;;2.58;0.90;;;;;;;;;;5054764;28;20072;-28
2024/04/01 13:35:30;;;;;;;1.52;0.82;;;;;;;;;;5054940;28;20029;-28
2024/04/01 13:38:00;;;;;;;1.50;0.70;;;;;;;;;;5054834;28;20578;-29
2024/04/01 13:40:44;;;;;;;1.83;0.73;;;;;;;;;;5054723;28;20036;-29
2024/04/01 13:43:26;;;;;;;1.83;0.70;;;;;;;;;;5054692;28;20037;-28
2024/04/01 13:46:05;;;;;;;2.15;0.88;;;;;;;;;;5055012;28;20086;-28
2024/04/01 13:48:41;;;;;;;2.70;0.90;;;;;;;;;;5054691;28;20022;-28
2024/04/01 13:51:17;;;;;;;4.25;0.88;;;;;;;;;;5054569;28;20533;-28
2024/04/01 13:53:52;;;;;;;1.98;0.90;;;;;;;;;;5054577;28;20028;-29
2024/04/01 13:56:21;;;;;;;1.05;0.70;;;;;;;;;;5054486;28;20035;-28
2024/04/01 13:58:51;;;;;;;3.20;0.80;;;;;;;;;;5054439;28;20040;-28
2024/04/01 14:01:37;;;;;;;1.58;0.75;;;;;;;;;;5054379;28;20020;-29
2024/04/01 14:04:18;;;;;;;1.88;0.70;;;;;;;;;;5054357;28;20029;-28
2024/04/01 14:07:04;;;;;;;2.38;0.88;;;;;;;;;;5054350;28;20048;-28
2024/04/01 14:09:50;;;;;;;2.08;1.00;;;;;;;;;;5054208;28;20030;-28
2024/04/01 14:12:17;;;;;;;1.67;0.77;;;;;;;;;;5054151;28;20505;-28
2024/04/01 14:14:46;;;;;;;1.95;0.70;;;;;;;;;;5054186;28;20028;-28
2024/04/01 14:17:31;;;;;;;2.80;1.02;;;;;;;;;;5054035;28;20075;-28
2024/04/01 14:20:24;;;;;;;1.70;0.70;;;;;;;;;;5053950;28;20033;-28
2024/04/01 14:22:50;;;;;;;;;;;;;;;;;;5054709;28;20399;-28
2024/04/01 14:25:18;;;;;;;3.17;0.80;;;;;;;;;;5054033;28;19904;-28
2024/04/01 14:27:49;;;;;;;2.92;0.80;;;;;;;;;;5053863;28;20029;-28
2024/04/01 14:30:16;;;;;;;5.88;0.80;;;;;;;;;;5053173;28;20028;-28
2024/04/01 14:32:44;;;;;;;3.40;0.90;;;;;;;;;;5053717;28;20071;-28
2024/04/01 14:35:11;;;;;;;1.33;0.80;;;;;;;;;;5053816;28;20031;-28
2024/04/01 14:37:41;;;;;;;1.58;0.73;;;;;;;;;;5053764;28;20025;-28
2024/04/01 14:40:09;;;;;;;3.58;1.10;;;;;;;;;;5053549;28;20124;-28
2024/04/01 14:42:37;;;;;;;1.60;0.63;;;;;;;;;;5053673;28;20051;-28
2024/04/01 14:45:05;;;;;;;2.30;0.90;;;;;;;;;;5053688;28;20033;-28
2024/04/01 14:47:33;;;;;;;2.10;0.88;;;;;;;;;;5053591;28;20387;-28
2024/04/01 14:50:00;;;;;;;2.05;0.93;;;;;;;;;;5053553;28;20087;-28
2024/04/01 14:52:27;;;;;;;3.08;0.90;;;;;;;;;;5053367;28;20091;-28
2024/04/01 14:54:54;;;;;;;2.15;0.85;;;;;;;;;;5053471;28;20029;-28
2024/04/01 14:57:21;;;;;;;1.52;0.88;;;;;;;;;;5053413;28;20033;-28
2024/04/01 14:59:48;;;;;;;1.88;0.80;;;;;;;;;;5053270;28;20036;-28